METAR Data
IDs: Format: Raw Decoded Include TAF

Data at: 0243 UTC 20 Jan 2022

VTSG 200200Z 04004KT 320V080 9999 FEW020 27/23 Q1012 NOSIG